Hauptseite
METAR-TAF:

METAR-TAF

Flughäfen :

Militärflugplatz Luxeuil-Saint Sauveur

Luxeuil-les-Bains, Frankreich

Breite: 47-47N, Länge: 006-21E, Höhe: 278 m

Beobachtung

Neuester Wetterbericht von vor 10 Minuten, um 05:00 UTC
Wind 2 kt aus West/Nordwest
Temperatur 7°C
Luftfeuchtigkeit 93%
Luftdruck 1026 hPa
Sichtweite: 0900 m
Nebelschwaden

METAR: LFSX 070500Z AUTO 29002KT 1300 0900 R11/1300U BCFG VV/// 07/06 Q1026

Zeit: 07:10 (05:10 UTC)

Prognose

Neuester Wetterbericht von vor 55 Minuten, um 04:15 UTC
Gültige Prognose vom 07 um 05 UTC bis 08 um 03 UTC
Wind 2 kt aus unterschiedlichen Richtungen
Sichtweite: 6000 m
Leicht bewölkt in der Höhe von 700 ft
Zeitweise
vom 07 um 05 UTC bis 07 um 08 UTC
Sichtweite: 2000 m
feuchter Dunst
Übergehend zu
vom 07 um 18 UTC bis 07 um 20 UTC
Sichtweite: 0500 m
Nebel

TAF: LFSX 070415Z 0705/0803 VRB02KT 6000 FEW007 TEMPO 0705/0708 2000 BR BECMG 0718/0720 0500 FG VV///

Wetterbeobachtungen und Prognosen von mehr als 4000 Flughäfen (METAR und TAF Bericht).

Die verfügbaren Stationen werden durch gelbe und rote Markierungen auf der Karte dargestellt.

Führen Sie die Maus auf sie, um den Namen der Station zu sehen.

Darauf klicken, um die Beobachtung von Wetterbeobachtungen und Prognosen zu sehen.

Um die Karte zu ändern : klicken Sie auf den grünen Tasten mit einem schwarzen Kreuz Zum Vergrößern, auf den grünen Button mit einem Gedankenstrich zu verkleinern, oder auf die grünen Pfeile für benachbarte Karten.


METAR-TAF: